Terminal Aerodrome Forecast
Issued by NWS Pueblo, CO

Home | Current Version | Previous Version | Text Only | Print | Product List | Glossary On
Versions: 1 2 3 4 5 6 7 8 9 10 11 12 13 14 15 16 17 18 19 20 21 22 23 24 25 26 27
000
FTUS45 KPUB 290136 AAA
TAFALS
TAF AMD
KALS 290136Z 2902/2924 18010KT P6SM VCTS SCT040CB BKN060
     FM290400 VRB06KT P6SM SCT060 BKN200
     FM290600 VRB06KT P6SM SCT030 BKN080
     FM291000 VRB05KT P6SM SKC
      TEMPO 2910/2914 4SM BR SCT020
     FM291600 23007KT P6SM SCT040 BKN080
     FM292100 25010KT P6SM VCTS SCT045CB BKN100=

USA.gov is the U.S. government's official web portal to all federal, state and local government web resources and services.